Time;durP1;ratioP1;P1;durP2;ratioP2;P2;SDS_P1;SDS_P2;PMS_P1;PMS_P2;Temp;Humidity;BMP_temperature;BMP_pressure;BME280_temperature;BME280_humidity;BME280_pressure;Samples;Min_cycle;Max_cycle;Signal;HPM_P1;HPM_P2
2022/12/28 00:02:09;;;;;;;8.77;5.13;;;;;;;;;;5029180;28;20250;-26
2022/12/28 00:04:36;;;;;;;7.70;4.47;;;;;;;;;;5012123;28;20210;-27
2022/12/28 00:07:03;;;;;;;6.23;4.30;;;;;;;;;;5014010;28;20210;-25
2022/12/28 00:09:30;;;;;;;6.67;4.80;;;;;;;;;;5027579;28;20237;-24
2022/12/28 00:11:57;;;;;;;5.80;3.63;;;;;;;;;;5024551;28;20233;-23
2022/12/28 00:14:26;;;;;;;6.20;4.13;;;;;;;;;;5011566;28;20212;-25
2022/12/28 00:16:53;;;;;;;4.90;4.10;;;;;;;;;;5012947;28;20211;-26
2022/12/28 00:19:20;;;;;;;6.87;4.47;;;;;;;;;;5028863;28;20221;-25
2022/12/28 00:21:47;;;;;;;4.70;3.90;;;;;;;;;;5014068;28;20243;-25
2022/12/28 00:24:16;;;;;;;5.30;4.20;;;;;;;;;;5027320;28;20210;-24
2022/12/28 00:26:43;;;;;;;5.57;4.00;;;;;;;;;;5020390;28;20202;-26
2022/12/28 00:29:12;;;;;;;7.10;4.37;;;;;;;;;;5019881;28;20262;-27
2022/12/28 00:31:40;;;;;;;7.27;4.20;;;;;;;;;;5025036;28;20230;-26
2022/12/28 00:34:07;;;;;;;7.00;4.30;;;;;;;;;;5015346;28;20210;-24
2022/12/28 00:36:34;;;;;;;5.80;4.23;;;;;;;;;;5009344;28;20207;-26
2022/12/28 00:39:02;;;;;;;5.63;4.70;;;;;;;;;;5011774;28;20207;-26
2022/12/28 00:41:29;;;;;;;6.77;4.60;;;;;;;;;;5016289;28;20596;-26
2022/12/28 00:43:56;;;;;;;5.80;4.30;;;;;;;;;;5019989;28;20210;-24
2022/12/28 00:46:23;;;;;;;8.03;4.40;;;;;;;;;;5017286;28;20211;-25
2022/12/28 00:48:51;;;;;;;7.40;4.97;;;;;;;;;;5025110;28;20207;-25
2022/12/28 00:51:20;;;;;;;8.07;5.30;;;;;;;;;;5015914;28;20230;-24
2022/12/28 00:53:47;;;;;;;6.47;4.60;;;;;;;;;;5020182;28;20253;-25
2022/12/28 00:56:15;;;;;;;5.10;4.10;;;;;;;;;;5010317;28;20209;-28
2022/12/28 00:58:42;;;;;;;4.83;3.83;;;;;;;;;;5012724;28;20203;-26
2022/12/28 01:01:12;;;;;;;7.60;4.70;;;;;;;;;;5028922;28;20235;-25
2022/12/28 01:03:39;;;;;;;7.50;4.30;;;;;;;;;;5029526;28;20210;-26
2022/12/28 01:06:08;;;;;;;6.97;4.80;;;;;;;;;;5021298;28;20203;-26
2022/12/28 01:08:36;;;;;;;6.30;4.30;;;;;;;;;;5017023;28;20210;-25
2022/12/28 01:11:07;;;;;;;8.10;5.07;;;;;;;;;;5020512;28;20246;-24
2022/12/28 01:13:34;;;;;;;7.13;4.57;;;;;;;;;;5009702;28;20211;-28
2022/12/28 01:16:01;;;;;;;7.37;5.20;;;;;;;;;;5017368;28;20218;-26
2022/12/28 01:18:28;;;;;;;8.33;4.50;;;;;;;;;;5020009;28;20195;-27
2022/12/28 01:20:55;;;;;;;6.40;4.80;;;;;;;;;;5011851;28;20235;-24
2022/12/28 01:23:24;;;;;;;7.67;4.30;;;;;;;;;;5026150;28;20198;-26
2022/12/28 01:25:51;;;;;;;7.73;3.97;;;;;;;;;;5029948;28;20221;-25
2022/12/28 01:28:18;;;;;;;7.43;4.47;;;;;;;;;;5022120;28;20213;-25
2022/12/28 01:30:45;;;;;;;8.20;4.80;;;;;;;;;;5023616;28;20238;-27
2022/12/28 01:33:12;;;;;;;6.03;4.57;;;;;;;;;;5025090;28;20230;-26
2022/12/28 01:35:39;;;;;;;9.73;4.90;;;;;;;;;;5013831;28;20657;-26
2022/12/28 01:38:06;;;;;;;8.07;5.07;;;;;;;;;;5027536;28;20218;-25
2022/12/28 01:40:35;;;;;;;5.37;4.50;;;;;;;;;;5017317;28;20203;-27
2022/12/28 01:43:02;;;;;;;4.60;4.00;;;;;;;;;;5011020;28;20222;-27
2022/12/28 01:45:29;;;;;;;5.93;4.50;;;;;;;;;;5022129;28;20573;-26
2022/12/28 01:47:56;;;;;;;6.20;4.43;;;;;;;;;;5024692;28;20202;-25
2022/12/28 01:50:25;;;;;;;5.60;4.07;;;;;;;;;;5025416;28;20680;-24
2022/12/28 01:52:53;;;;;;;7.00;4.60;;;;;;;;;;5020367;28;20231;-26
2022/12/28 01:55:22;;;;;;;6.17;4.40;;;;;;;;;;5021873;28;20207;-26
2022/12/28 01:57:52;;;;;;;7.00;4.47;;;;;;;;;;5023847;28;20214;-24
2022/12/28 02:00:20;;;;;;;6.07;4.50;;;;;;;;;;5020871;28;20269;-26
2022/12/28 02:02:48;;;;;;;5.83;4.27;;;;;;;;;;5017598;28;20200;-23
2022/12/28 02:05:16;;;;;;;5.83;3.87;;;;;;;;;;5028005;28;20217;-25
2022/12/28 02:07:47;;;;;;;8.17;4.90;;;;;;;;;;5029792;28;20214;-25
2022/12/28 02:10:15;;;;;;;8.77;4.70;;;;;;;;;;5020856;28;20207;-25
2022/12/28 02:12:42;;;;;;;10.77;5.07;;;;;;;;;;5016931;28;20228;-25
2022/12/28 02:15:11;;;;;;;6.90;4.23;;;;;;;;;;5017725;28;20211;-24
2022/12/28 02:17:38;;;;;;;8.63;5.10;;;;;;;;;;5031455;28;20207;-25
2022/12/28 02:20:06;;;;;;;7.87;4.70;;;;;;;;;;5031560;28;20343;-25
2022/12/28 02:22:56;;;;;;;8.07;4.60;;;;;;;;;;5018305;28;20219;-25
2022/12/28 02:25:40;;;;;;;6.87;5.17;;;;;;;;;;5020595;28;20205;-24
2022/12/28 02:28:13;;;;;;;5.97;4.13;;;;;;;;;;5012408;28;20261;-26
2022/12/28 02:30:44;;;;;;;6.53;4.43;;;;;;;;;;5025196;28;20223;-27
2022/12/28 02:33:16;;;;;;;8.27;4.80;;;;;;;;;;5016801;28;20234;-24
2022/12/28 02:35:45;;;;;;;10.43;4.33;;;;;;;;;;5012735;28;20218;-26
2022/12/28 02:38:15;;;;;;;7.13;4.53;;;;;;;;;;5016472;28;20206;-26
2022/12/28 02:40:45;;;;;;;6.30;4.57;;;;;;;;;;5024418;28;20223;-26
2022/12/28 02:43:13;;;;;;;8.37;4.83;;;;;;;;;;5016008;28;20207;-26
2022/12/28 02:51:18;;;;;;;7.63;4.67;;;;;;;;;;5033336;28;20276;-26
2022/12/28 02:53:54;;;;;;;7.90;5.10;;;;;;;;;;5016216;28;20222;-26
2022/12/28 02:56:27;;;;;;;5.30;4.80;;;;;;;;;;5016420;28;20213;-25
2022/12/28 02:59:09;;;;;;;7.47;4.97;;;;;;;;;;5024663;28;20799;-24
2022/12/28 03:01:46;;;;;;;6.47;5.03;;;;;;;;;;5031049;28;20226;-26
2022/12/28 03:04:17;;;;;;;7.07;4.63;;;;;;;;;;5031771;28;20226;-24
2022/12/28 03:09:37;;;;;;;8.67;5.07;;;;;;;;;;5021395;28;20218;-25
2022/12/28 03:12:07;;;;;;;5.77;4.47;;;;;;;;;;5011631;28;20231;-27
2022/12/28 03:14:37;;;;;;;7.60;5.77;;;;;;;;;;5016332;28;20234;-25
2022/12/28 03:31:03;;;;;;;7.80;4.83;;;;;;;;;;5021173;28;20542;-27
2022/12/28 03:33:32;;;;;;;8.13;5.23;;;;;;;;;;5017905;28;20219;-26
2022/12/28 03:36:04;;;;;;;8.70;5.07;;;;;;;;;;5023849;28;20214;-24
2022/12/28 03:38:37;;;;;;;6.23;4.23;;;;;;;;;;5011955;28;20301;-26
2022/12/28 03:41:07;;;;;;;6.73;4.63;;;;;;;;;;5022535;28;20229;-26
2022/12/28 03:43:39;;;;;;;6.53;4.67;;;;;;;;;;5015730;28;20214;-26
2022/12/28 03:46:08;;;;;;;8.50;5.67;;;;;;;;;;5030172;28;20215;-25
2022/12/28 03:48:37;;;;;;;7.57;5.23;;;;;;;;;;5022721;28;20249;-25
2022/12/28 03:51:04;;;;;;;7.30;5.77;;;;;;;;;;5022567;28;20703;-27
2022/12/28 03:53:36;;;;;;;9.77;5.53;;;;;;;;;;5021837;28;20233;-24
2022/12/28 03:56:10;;;;;;;9.63;6.37;;;;;;;;;;5021684;28;20205;-26
2022/12/28 03:58:38;;;;;;;6.93;4.70;;;;;;;;;;5021246;28;20320;-28
2022/12/28 04:01:05;;;;;;;9.13;5.10;;;;;;;;;;5030582;28;20225;-25
2022/12/28 04:03:32;;;;;;;8.10;5.00;;;;;;;;;;5026057;28;20199;-25
2022/12/28 04:06:01;;;;;;;6.47;5.17;;;;;;;;;;5023058;28;20207;-26
2022/12/28 04:08:28;;;;;;;8.23;4.57;;;;;;;;;;5019709;28;20206;-25
2022/12/28 04:10:55;;;;;;;10.67;5.33;;;;;;;;;;5026141;28;20227;-25
2022/12/28 04:13:22;;;;;;;6.93;5.20;;;;;;;;;;5013499;28;20219;-26
2022/12/28 04:15:56;;;;;;;12.40;5.70;;;;;;;;;;5022286;28;20215;-26
2022/12/28 04:18:23;;;;;;;7.27;5.30;;;;;;;;;;5013780;28;20210;-29
2022/12/28 04:23:20;;;;;;;7.43;5.47;;;;;;;;;;5057933;28;20219;-26
2022/12/28 04:25:57;;;;;;;8.03;5.27;;;;;;;;;;5050859;28;20209;-27
2022/12/28 04:28:24;;;;;;;7.07;5.00;;;;;;;;;;5029229;28;20219;-25
2022/12/28 04:30:52;;;;;;;7.93;5.47;;;;;;;;;;5051278;28;20226;-25
2022/12/28 04:33:19;;;;;;;5.83;4.90;;;;;;;;;;5050584;28;20719;-27
2022/12/28 04:35:46;;;;;;;5.63;4.77;;;;;;;;;;5052651;28;20579;-26
2022/12/28 04:38:13;;;;;;;7.73;4.83;;;;;;;;;;5020353;28;20216;-27
2022/12/28 04:40:42;;;;;;;7.83;5.23;;;;;;;;;;5039554;28;20232;-26
2022/12/28 04:43:09;;;;;;;6.57;5.17;;;;;;;;;;5021348;28;20204;-28
2022/12/28 04:45:36;;;;;;;8.80;5.37;;;;;;;;;;5036122;28;20213;-26
2022/12/28 04:48:03;;;;;;;8.77;5.47;;;;;;;;;;5035905;28;20693;-27
2022/12/28 04:50:30;;;;;;;5.67;4.97;;;;;;;;;;5018624;28;20203;-26
2022/12/28 04:52:58;;;;;;;7.37;4.77;;;;;;;;;;5037150;28;20203;-27
2022/12/28 04:55:25;;;;;;;10.90;5.33;;;;;;;;;;5033820;28;20207;-25
2022/12/28 04:57:54;;;;;;;8.07;5.27;;;;;;;;;;5017921;28;20215;-27
2022/12/28 05:00:21;;;;;;;10.43;5.20;;;;;;;;;;5024950;28;20210;-27
2022/12/28 05:02:48;;;;;;;8.30;5.33;;;;;;;;;;5030333;28;20214;-26
2022/12/28 05:05:15;;;;;;;9.37;5.10;;;;;;;;;;5030874;28;20210;-26
2022/12/28 05:07:42;;;;;;;6.03;4.60;;;;;;;;;;5037298;28;20264;-26
2022/12/28 05:10:09;;;;;;;9.40;5.23;;;;;;;;;;5034383;28;20203;-26
2022/12/28 05:12:37;;;;;;;6.90;4.87;;;;;;;;;;5036059;28;20233;-27
2022/12/28 05:15:06;;;;;;;8.80;5.50;;;;;;;;;;5032912;28;20222;-26
2022/12/28 05:17:33;;;;;;;7.63;5.73;;;;;;;;;;5034158;28;20207;-26
2022/12/28 05:20:00;;;;;;;8.33;5.50;;;;;;;;;;5035768;28;20722;-26
2022/12/28 05:22:27;;;;;;;9.90;5.73;;;;;;;;;;5049430;28;20236;-25
2022/12/28 05:24:54;;;;;;;7.80;5.40;;;;;;;;;;5041202;28;20221;-25
2022/12/28 05:27:21;;;;;;;9.83;6.00;;;;;;;;;;5023969;28;20218;-27
2022/12/28 05:29:49;;;;;;;8.23;5.70;;;;;;;;;;5020988;28;20214;-25
2022/12/28 05:32:17;;;;;;;10.63;5.83;;;;;;;;;;5020255;28;20585;-26
2022/12/28 05:34:44;;;;;;;6.87;5.10;;;;;;;;;;5026364;28;20222;-24
2022/12/28 05:37:11;;;;;;;9.07;5.37;;;;;;;;;;5019616;28;20460;-27
2022/12/28 05:39:42;;;;;;;8.77;5.73;;;;;;;;;;5029481;28;21373;-26
2022/12/28 05:42:09;;;;;;;8.23;5.57;;;;;;;;;;5024427;28;20234;-26
2022/12/28 05:44:36;;;;;;;7.67;5.07;;;;;;;;;;5034472;28;20489;-26
2022/12/28 05:47:04;;;;;;;8.37;5.53;;;;;;;;;;5052746;28;20206;-27
2022/12/28 05:49:32;;;;;;;8.10;5.43;;;;;;;;;;5049287;28;20202;-27
2022/12/28 05:51:59;;;;;;;8.40;5.20;;;;;;;;;;5024462;28;20246;-29
2022/12/28 05:54:26;;;;;;;7.47;5.77;;;;;;;;;;5034595;28;20218;-27
2022/12/28 05:56:53;;;;;;;12.73;6.00;;;;;;;;;;5030220;28;20210;-27
2022/12/28 05:59:20;;;;;;;11.20;5.47;;;;;;;;;;5030031;28;20203;-27
2022/12/28 06:01:47;;;;;;;7.10;4.97;;;;;;;;;;5032487;28;20219;-28
2022/12/28 06:04:16;;;;;;;8.13;5.20;;;;;;;;;;5033324;28;20216;-25
2022/12/28 06:06:45;;;;;;;8.20;5.23;;;;;;;;;;5030048;28;20233;-27
2022/12/28 06:09:13;;;;;;;9.47;6.77;;;;;;;;;;5023411;28;20206;-29
2022/12/28 06:11:40;;;;;;;6.60;5.43;;;;;;;;;;5023355;28;20222;-27
2022/12/28 06:14:07;;;;;;;7.20;5.43;;;;;;;;;;5017936;28;20223;-27
2022/12/28 06:16:35;;;;;;;7.50;6.03;;;;;;;;;;5048962;28;20209;-26
2022/12/28 06:19:05;;;;;;;8.13;5.47;;;;;;;;;;5051863;28;20217;-28
2022/12/28 06:21:32;;;;;;;7.23;4.83;;;;;;;;;;5019156;28;20230;-27
2022/12/28 06:24:01;;;;;;;7.13;5.27;;;;;;;;;;5028532;28;20210;-28
2022/12/28 06:26:29;;;;;;;7.47;5.57;;;;;;;;;;5045015;28;20198;-27
2022/12/28 06:28:57;;;;;;;9.43;5.60;;;;;;;;;;5019668;28;20211;-28
2022/12/28 06:31:24;;;;;;;10.53;5.17;;;;;;;;;;5029209;28;20229;-27
2022/12/28 06:33:52;;;;;;;10.17;5.60;;;;;;;;;;5052504;28;20242;-27
2022/12/28 06:36:21;;;;;;;8.57;5.57;;;;;;;;;;5047457;28;20214;-27
2022/12/28 06:38:48;;;;;;;9.77;6.00;;;;;;;;;;5026681;28;20202;-26
2022/12/28 06:41:17;;;;;;;8.60;5.77;;;;;;;;;;5035434;28;20237;-27
2022/12/28 06:43:45;;;;;;;7.77;5.77;;;;;;;;;;5026968;28;20209;-27
2022/12/28 06:46:13;;;;;;;7.40;5.00;;;;;;;;;;5035933;28;20206;-26
2022/12/28 06:48:40;;;;;;;9.30;5.97;;;;;;;;;;5031534;28;20672;-27
2022/12/28 06:51:08;;;;;;;9.83;5.03;;;;;;;;;;5021237;28;20223;-29
2022/12/28 06:53:37;;;;;;;6.87;5.67;;;;;;;;;;5029008;28;20207;-27
2022/12/28 06:56:05;;;;;;;6.83;5.27;;;;;;;;;;5038269;28;20202;-30
2022/12/28 06:58:34;;;;;;;8.47;5.83;;;;;;;;;;5023192;28;20290;-27
2022/12/28 07:01:06;;;;;;;8.53;5.33;;;;;;;;;;5025482;28;20608;-27
2022/12/28 07:03:33;;;;;;;10.87;5.93;;;;;;;;;;5031953;28;20203;-27
2022/12/28 07:06:01;;;;;;;7.13;5.60;;;;;;;;;;5028668;28;20202;-25
2022/12/28 07:08:28;;;;;;;8.37;5.20;;;;;;;;;;5029659;28;20214;-26
2022/12/28 07:10:55;;;;;;;6.63;5.20;;;;;;;;;;5047371;28;20226;-26
2022/12/28 07:13:22;;;;;;;7.27;5.03;;;;;;;;;;5024482;28;20207;-28
2022/12/28 07:15:50;;;;;;;5.63;5.10;;;;;;;;;;5030511;28;20702;-28
2022/12/28 07:18:18;;;;;;;10.13;6.10;;;;;;;;;;5031463;28;20202;-28
2022/12/28 07:20:45;;;;;;;6.60;4.80;;;;;;;;;;5031596;28;20273;-27
2022/12/28 07:23:12;;;;;;;7.63;4.90;;;;;;;;;;5018085;28;20215;-26
2022/12/28 07:25:39;;;;;;;7.23;5.27;;;;;;;;;;5025565;28;20210;-25
2022/12/28 07:28:06;;;;;;;6.57;4.90;;;;;;;;;;5019320;28;20204;-27
2022/12/28 07:30:33;;;;;;;8.77;5.03;;;;;;;;;;5030330;28;20210;-26
2022/12/28 07:33:01;;;;;;;7.57;4.67;;;;;;;;;;5033196;28;20295;-27
2022/12/28 07:35:28;;;;;;;6.10;5.00;;;;;;;;;;5025934;28;20228;-25
2022/12/28 07:37:55;;;;;;;7.90;5.13;;;;;;;;;;5022264;28;20210;-25
2022/12/28 07:40:23;;;;;;;8.27;5.90;;;;;;;;;;5040547;28;20221;-25
2022/12/28 07:42:52;;;;;;;12.30;6.57;;;;;;;;;;5031946;28;20210;-27
2022/12/28 07:45:19;;;;;;;7.73;5.70;;;;;;;;;;5037383;28;20292;-27
2022/12/28 07:47:46;;;;;;;10.90;6.40;;;;;;;;;;5033100;28;20203;-25
2022/12/28 07:50:15;;;;;;;10.43;6.57;;;;;;;;;;5027931;28;20210;-28
2022/12/28 07:52:42;;;;;;;8.27;5.50;;;;;;;;;;5026536;28;20219;-27
2022/12/28 07:55:09;;;;;;;8.93;6.07;;;;;;;;;;5029444;28;20219;-29
2022/12/28 07:57:38;;;;;;;6.53;5.20;;;;;;;;;;5019467;28;20302;-26
2022/12/28 08:00:07;;;;;;;6.87;5.10;;;;;;;;;;5026278;28;20217;-25
2022/12/28 08:02:34;;;;;;;7.50;5.83;;;;;;;;;;5040884;28;20280;-26
2022/12/28 08:05:01;;;;;;;7.97;5.47;;;;;;;;;;5027670;28;20206;-25
2022/12/28 08:07:29;;;;;;;7.17;5.70;;;;;;;;;;5014329;28;20221;-25
2022/12/28 08:09:56;;;;;;;7.73;5.40;;;;;;;;;;5020281;28;20207;-26
2022/12/28 08:12:23;;;;;;;8.13;5.57;;;;;;;;;;5017457;28;20708;-25
2022/12/28 08:14:51;;;;;;;7.27;4.93;;;;;;;;;;5022082;28;20222;-25
2022/12/28 08:17:18;;;;;;;8.43;5.20;;;;;;;;;;5037638;28;20265;-28
2022/12/28 08:19:45;;;;;;;9.20;7.00;;;;;;;;;;5031744;28;20205;-27
2022/12/28 08:22:12;;;;;;;8.60;6.70;;;;;;;;;;5020566;28;20684;-26
2022/12/28 08:24:40;;;;;;;6.70;5.43;;;;;;;;;;5028828;28;20217;-25
2022/12/28 08:27:07;;;;;;;8.40;5.57;;;;;;;;;;5016132;28;20214;-26
2022/12/28 08:29:34;;;;;;;6.80;5.33;;;;;;;;;;5032541;28;20664;-26
2022/12/28 08:32:01;;;;;;;10.07;5.53;;;;;;;;;;5030705;28;20225;-26
2022/12/28 08:34:29;;;;;;;6.10;4.70;;;;;;;;;;5012958;28;20223;-29
2022/12/28 08:36:56;;;;;;;8.77;5.73;;;;;;;;;;5025010;28;20215;-26
2022/12/28 08:39:28;;;;;;;6.33;4.70;;;;;;;;;;5017221;28;20207;-27
2022/12/28 08:41:56;;;;;;;6.87;5.57;;;;;;;;;;5027411;28;20230;-27
2022/12/28 08:44:23;;;;;;;6.27;5.30;;;;;;;;;;5029595;28;20213;-27
2022/12/28 08:46:50;;;;;;;6.10;4.93;;;;;;;;;;5038662;28;20209;-28
2022/12/28 08:49:18;;;;;;;9.07;5.53;;;;;;;;;;5038592;28;20203;-25
2022/12/28 08:51:45;;;;;;;6.27;5.13;;;;;;;;;;5029686;28;20269;-27
2022/12/28 08:54:13;;;;;;;8.23;5.20;;;;;;;;;;5031191;28;20209;-26
2022/12/28 08:56:42;;;;;;;7.33;5.40;;;;;;;;;;5027453;28;20198;-26
2022/12/28 08:59:13;;;;;;;8.33;5.93;;;;;;;;;;5026499;28;20203;-27
2022/12/28 09:01:40;;;;;;;10.57;5.43;;;;;;;;;;5043178;28;20227;-26
2022/12/28 09:04:08;;;;;;;6.67;5.00;;;;;;;;;;5032722;28;20211;-27
2022/12/28 09:06:36;;;;;;;7.63;5.97;;;;;;;;;;5022327;28;20640;-26
2022/12/28 09:09:04;;;;;;;8.67;5.43;;;;;;;;;;5019674;28;20204;-25
2022/12/28 09:11:31;;;;;;;8.63;6.27;;;;;;;;;;5019975;28;20696;-28
2022/12/28 09:13:58;;;;;;;7.07;5.70;;;;;;;;;;5022110;28;20206;-26
2022/12/28 09:16:28;;;;;;;6.53;5.13;;;;;;;;;;5023534;28;20225;-25
2022/12/28 09:18:56;;;;;;;7.90;5.60;;;;;;;;;;5022201;28;20900;-28
2022/12/28 09:21:23;;;;;;;10.80;6.47;;;;;;;;;;5019511;28;20222;-26
2022/12/28 09:23:51;;;;;;;9.17;6.30;;;;;;;;;;5025524;28;20202;-27
2022/12/28 09:26:19;;;;;;;9.77;6.20;;;;;;;;;;5019406;28;20199;-25
2022/12/28 09:28:46;;;;;;;9.57;5.90;;;;;;;;;;5017125;28;20207;-27
2022/12/28 09:31:14;;;;;;;8.30;5.83;;;;;;;;;;5019759;28;20219;-26
2022/12/28 09:34:00;;;;;;;8.57;6.00;;;;;;;;;;5021734;28;20207;-29
2022/12/28 09:36:28;;;;;;;8.37;5.13;;;;;;;;;;5021190;28;20234;-31
2022/12/28 09:38:55;;;;;;;8.37;5.70;;;;;;;;;;5025674;28;20214;-26
2022/12/28 09:41:26;;;;;;;6.40;5.53;;;;;;;;;;5027648;28;20221;-28
2022/12/28 09:43:55;;;;;;;6.80;5.13;;;;;;;;;;5021979;28;20214;-27
2022/12/28 09:46:23;;;;;;;8.83;6.23;;;;;;;;;;5034686;28;20199;-26
2022/12/28 09:48:54;;;;;;;11.10;6.00;;;;;;;;;;5025291;28;20203;-28
2022/12/28 09:51:25;;;;;;;7.37;5.90;;;;;;;;;;5020681;28;20218;-26
2022/12/28 09:54:00;;;;;;;10.20;6.60;;;;;;;;;;5025602;28;20686;-27
2022/12/28 09:56:29;;;;;;;7.53;6.23;;;;;;;;;;5029674;28;20211;-28
2022/12/28 09:58:56;;;;;;;12.33;6.43;;;;;;;;;;5025496;28;20207;-26
2022/12/28 10:01:24;;;;;;;7.87;6.53;;;;;;;;;;5049236;28;20233;-25
2022/12/28 10:03:52;;;;;;;8.87;5.83;;;;;;;;;;5054943;28;20202;-28
2022/12/28 10:06:22;;;;;;;6.80;5.60;;;;;;;;;;5030150;28;20218;-26
2022/12/28 10:08:50;;;;;;;8.30;5.77;;;;;;;;;;5019628;28;20210;-26
2022/12/28 10:11:19;;;;;;;12.17;11.00;;;;;;;;;;5034919;28;20226;-26
2022/12/28 10:13:46;;;;;;;11.27;7.20;;;;;;;;;;5024387;28;20208;-27
2022/12/28 10:16:17;;;;;;;12.17;6.40;;;;;;;;;;5037687;28;20230;-28
2022/12/28 10:18:45;;;;;;;7.07;6.37;;;;;;;;;;5014344;28;20773;-27
2022/12/28 10:21:13;;;;;;;10.30;7.73;;;;;;;;;;5283248;23;20236;-26
2022/12/28 10:23:42;;;;;;;10.20;6.63;;;;;;;;;;5061265;28;20202;-25
2022/12/28 10:26:13;;;;;;;10.97;7.30;;;;;;;;;;5057152;28;20379;-24
2022/12/28 10:28:44;;;;;;;10.90;7.33;;;;;;;;;;5055333;28;20205;-26
2022/12/28 10:31:12;;;;;;;10.43;8.30;;;;;;;;;;5046463;28;20223;-24
2022/12/28 10:33:39;;;;;;;11.83;7.67;;;;;;;;;;5034513;28;20203;-25
2022/12/28 10:36:11;;;;;;;11.13;8.17;;;;;;;;;;5043356;28;20226;-25
2022/12/28 10:38:42;;;;;;;10.53;7.43;;;;;;;;;;5034961;28;20211;-25
2022/12/28 10:41:10;;;;;;;12.37;7.80;;;;;;;;;;5043229;28;20226;-27
2022/12/28 10:43:40;;;;;;;12.03;8.33;;;;;;;;;;5039266;28;20284;-27
2022/12/28 10:46:07;;;;;;;12.13;8.80;;;;;;;;;;5032445;28;20199;-29
2022/12/28 10:48:37;;;;;;;12.40;8.47;;;;;;;;;;5051014;28;20206;-26
2022/12/28 10:51:11;;;;;;;11.43;7.60;;;;;;;;;;5042177;28;20233;-28
2022/12/28 10:53:43;;;;;;;11.60;7.73;;;;;;;;;;5033583;28;20203;-28
2022/12/28 10:56:21;;;;;;;10.90;7.40;;;;;;;;;;5040527;28;20223;-28
2022/12/28 10:58:49;;;;;;;9.57;6.20;;;;;;;;;;5036276;28;20324;-26
2022/12/28 11:01:18;;;;;;;11.90;7.03;;;;;;;;;;5039888;28;20229;-27
2022/12/28 11:03:46;;;;;;;6.07;3.83;;;;;;;;;;5052456;28;20214;-28
2022/12/28 11:06:15;;;;;;;2.67;2.43;;;;;;;;;;5048832;28;20201;-25
2022/12/28 11:08:44;;;;;;;2.60;2.10;;;;;;;;;;5031492;28;20293;-25
2022/12/28 11:11:18;;;;;;;3.33;2.17;;;;;;;;;;5034722;28;20236;-26
2022/12/28 11:13:47;;;;;;;2.23;1.90;;;;;;;;;;5033389;28;20201;-26
2022/12/28 11:16:15;;;;;;;2.07;1.97;;;;;;;;;;5032258;28;20230;-28
2022/12/28 11:18:42;;;;;;;1.60;1.50;;;;;;;;;;5031354;28;20203;-27
2022/12/28 11:21:10;;;;;;;3.57;2.70;;;;;;;;;;5031613;28;20257;-27
2022/12/28 11:23:39;;;;;;;1.70;1.60;;;;;;;;;;5035747;28;20207;-27
2022/12/28 11:26:11;;;;;;;2.53;2.10;;;;;;;;;;5037254;28;20208;-26
2022/12/28 11:28:40;;;;;;;1.97;1.70;;;;;;;;;;5038629;28;20206;-25
2022/12/28 11:31:08;;;;;;;2.00;1.80;;;;;;;;;;5039923;28;20267;-28
2022/12/28 11:33:38;;;;;;;3.00;1.93;;;;;;;;;;5035166;28;20236;-27
2022/12/28 11:36:05;;;;;;;2.00;1.70;;;;;;;;;;5033838;28;20226;-26
2022/12/28 11:38:40;;;;;;;1.60;1.50;;;;;;;;;;5045112;28;20209;-27
2022/12/28 11:41:10;;;;;;;2.10;1.57;;;;;;;;;;5031691;28;20229;-27
2022/12/28 11:43:52;;;;;;;2.07;1.80;;;;;;;;;;5031487;28;20209;-26
2022/12/28 11:46:38;;;;;;;1.60;1.50;;;;;;;;;;5034427;28;20206;-28
2022/12/28 11:49:06;;;;;;;2.93;1.63;;;;;;;;;;5031269;28;20198;-27
2022/12/28 11:51:34;;;;;;;3.60;1.70;;;;;;;;;;5029641;28;20237;-25
2022/12/28 11:54:02;;;;;;;2.20;1.90;;;;;;;;;;5032338;28;20233;-27
2022/12/28 11:56:53;;;;;;;2.00;1.70;;;;;;;;;;5046888;28;20226;-25
2022/12/28 11:59:23;;;;;;;3.17;1.83;;;;;;;;;;5045266;28;20216;-28
2022/12/28 12:01:54;;;;;;;2.47;1.83;;;;;;;;;;5038833;28;20714;-26
2022/12/28 12:04:31;;;;;;;2.27;2.03;;;;;;;;;;5031830;28;20290;-27
2022/12/28 12:07:22;;;;;;;2.20;1.80;;;;;;;;;;5035879;28;20209;-27
2022/12/28 12:10:06;;;;;;;2.63;1.80;;;;;;;;;;5042208;28;20213;-25
2022/12/28 12:12:36;;;;;;;1.70;1.50;;;;;;;;;;5037252;28;20226;-26
2022/12/28 12:15:10;;;;;;;2.20;1.70;;;;;;;;;;5030828;28;20203;-27
2022/12/28 12:17:40;;;;;;;3.40;1.87;;;;;;;;;;5041958;28;20217;-27
2022/12/28 12:20:15;;;;;;;2.07;1.70;;;;;;;;;;5050855;28;20416;-26
2022/12/28 12:22:45;;;;;;;1.47;1.37;;;;;;;;;;5042809;28;20222;-27
2022/12/28 12:25:16;;;;;;;2.53;1.50;;;;;;;;;;5044045;28;20236;-27
2022/12/28 12:27:45;;;;;;;2.83;1.60;;;;;;;;;;5042449;28;20199;-25
2022/12/28 12:30:15;;;;;;;1.83;1.50;;;;;;;;;;5041092;28;20203;-27
2022/12/28 12:32:44;;;;;;;1.83;1.73;;;;;;;;;;5039018;28;20230;-25
2022/12/28 12:35:14;;;;;;;1.80;1.30;;;;;;;;;;5029392;28;20206;-26
2022/12/28 12:37:46;;;;;;;1.73;1.37;;;;;;;;;;5030266;28;20210;-28
2022/12/28 12:40:28;;;;;;;1.37;1.27;;;;;;;;;;5037694;28;20279;-27
2022/12/28 12:43:08;;;;;;;2.00;1.57;;;;;;;;;;5040404;28;20229;-25
2022/12/28 12:45:40;;;;;;;3.00;1.67;;;;;;;;;;5048123;28;20205;-28
2022/12/28 12:48:25;;;;;;;1.30;0.87;;;;;;;;;;5036533;28;20207;-27
2022/12/28 12:51:14;;;;;;;2.80;1.90;;;;;;;;;;5029398;28;20233;-29
2022/12/28 12:53:51;;;;;;;2.87;1.40;;;;;;;;;;5047113;28;20206;-25
2022/12/28 12:56:26;;;;;;;3.80;1.30;;;;;;;;;;5038072;28;20229;-29
2022/12/28 12:59:01;;;;;;;1.07;1.07;;;;;;;;;;5039524;28;20216;-25
2022/12/28 13:01:35;;;;;;;1.47;1.10;;;;;;;;;;5040980;28;20244;-28
2022/12/28 13:04:07;;;;;;;1.33;1.23;;;;;;;;;;5031667;28;20432;-28
2022/12/28 13:06:35;;;;;;;1.57;1.27;;;;;;;;;;5031271;28;20230;-26
2022/12/28 13:09:05;;;;;;;1.57;1.27;;;;;;;;;;5035845;28;20238;-27
2022/12/28 13:11:36;;;;;;;1.10;1.00;;;;;;;;;;5038490;28;20222;-25
2022/12/28 13:14:03;;;;;;;2.37;1.10;;;;;;;;;;5031541;28;20233;-27
2022/12/28 13:16:32;;;;;;;1.30;1.20;;;;;;;;;;5030288;28;20222;-28
2022/12/28 13:19:01;;;;;;;1.20;1.10;;;;;;;;;;5031389;28;20206;-25
2022/12/28 13:21:29;;;;;;;1.00;1.00;;;;;;;;;;5030132;28;20285;-27
2022/12/28 13:23:56;;;;;;;3.47;1.70;;;;;;;;;;5036876;28;20216;-24
2022/12/28 13:26:26;;;;;;;1.53;1.20;;;;;;;;;;5050989;28;20204;-26
2022/12/28 13:28:56;;;;;;;2.23;1.70;;;;;;;;;;5040376;28;20256;-25
2022/12/28 13:31:24;;;;;;;1.20;1.10;;;;;;;;;;5053856;28;20232;-27
2022/12/28 13:33:57;;;;;;;2.77;1.40;;;;;;;;;;5054044;28;20198;-25
2022/12/28 13:36:26;;;;;;;1.10;1.00;;;;;;;;;;5036788;28;20226;-27
2022/12/28 13:39:00;;;;;;;2.37;1.30;;;;;;;;;;5040248;28;20217;-28
2022/12/28 13:41:28;;;;;;;1.20;1.20;;;;;;;;;;5035714;28;20246;-27
2022/12/28 13:44:28;;;;;;;1.30;1.20;;;;;;;;;;5035801;28;20218;-24
2022/12/28 13:46:58;;;;;;;2.03;1.33;;;;;;;;;;5041628;28;20195;-27
2022/12/28 13:49:27;;;;;;;1.77;1.50;;;;;;;;;;5033511;28;20207;-25
2022/12/28 13:51:55;;;;;;;3.10;1.40;;;;;;;;;;5041410;28;20234;-25
2022/12/28 13:54:23;;;;;;;1.27;1.27;;;;;;;;;;5038835;28;20210;-25
2022/12/28 13:56:51;;;;;;;1.40;1.30;;;;;;;;;;5037116;28;20253;-25
2022/12/28 13:59:19;;;;;;;2.00;1.53;;;;;;;;;;5041346;28;20216;-31
2022/12/28 14:01:49;;;;;;;2.67;1.70;;;;;;;;;;5033065;28;20219;-25
2022/12/28 14:04:17;;;;;;;1.80;1.40;;;;;;;;;;5033641;28;20234;-29
2022/12/28 14:06:46;;;;;;;3.23;1.50;;;;;;;;;;5037628;28;20198;-27
2022/12/28 14:09:14;;;;;;;2.77;1.20;;;;;;;;;;5032893;28;20596;-25
2022/12/28 14:11:41;;;;;;;2.13;1.60;;;;;;;;;;5040570;28;20225;-26
2022/12/28 14:14:09;;;;;;;1.50;1.40;;;;;;;;;;5043350;28;20214;-25
2022/12/28 14:16:36;;;;;;;1.63;1.53;;;;;;;;;;5051824;28;20226;-28
2022/12/28 14:19:04;;;;;;;3.20;1.60;;;;;;;;;;5053037;28;20206;-28
2022/12/28 14:21:35;;;;;;;2.13;1.27;;;;;;;;;;5044172;28;20237;-26
2022/12/28 14:24:08;;;;;;;2.90;1.60;;;;;;;;;;5051470;28;20209;-26
2022/12/28 14:26:35;;;;;;;2.53;1.80;;;;;;;;;;5031943;28;20225;-28
2022/12/28 14:29:03;;;;;;;1.77;1.67;;;;;;;;;;5040522;28;20206;-27
2022/12/28 14:31:31;;;;;;;1.70;1.40;;;;;;;;;;5044502;28;20260;-27
2022/12/28 14:33:59;;;;;;;1.70;1.53;;;;;;;;;;5052891;28;20202;-30
2022/12/28 14:36:29;;;;;;;5.40;1.73;;;;;;;;;;5045812;28;20228;-28
2022/12/28 14:38:57;;;;;;;2.73;1.50;;;;;;;;;;5037264;28;20217;-27
2022/12/28 14:41:28;;;;;;;5.40;1.67;;;;;;;;;;5041045;28;20225;-25
2022/12/28 14:43:56;;;;;;;3.53;1.33;;;;;;;;;;5034968;28;20221;-26
2022/12/28 14:46:29;;;;;;;2.50;1.60;;;;;;;;;;5049738;28;20213;-26
2022/12/28 14:48:56;;;;;;;1.63;1.53;;;;;;;;;;5052476;28;20205;-27
2022/12/28 14:51:25;;;;;;;2.97;1.30;;;;;;;;;;5043554;28;20231;-27
2022/12/28 14:54:14;;;;;;;1.53;1.43;;;;;;;;;;5040974;28;20211;-29
2022/12/28 14:56:42;;;;;;;2.23;1.77;;;;;;;;;;5040243;28;20222;-27
2022/12/28 14:59:16;;;;;;;1.57;1.40;;;;;;;;;;5046213;28;20210;-27
2022/12/28 15:01:44;;;;;;;4.90;2.50;;;;;;;;;;5035559;28;20309;-26
2022/12/28 15:04:25;;;;;;;2.43;2.10;;;;;;;;;;5052482;28;20296;-25
2022/12/28 15:06:52;;;;;;;3.33;1.80;;;;;;;;;;5048227;28;20209;-26
2022/12/28 15:09:19;;;;;;;1.77;1.43;;;;;;;;;;5042383;28;20210;-27
2022/12/28 15:11:48;;;;;;;2.63;1.70;;;;;;;;;;5031829;28;20226;-25
2022/12/28 15:14:15;;;;;;;2.10;1.67;;;;;;;;;;5039357;28;20257;-29
2022/12/28 15:16:42;;;;;;;2.93;1.70;;;;;;;;;;5039415;28;20234;-28
2022/12/28 15:19:10;;;;;;;2.33;1.80;;;;;;;;;;5031743;28;20297;-28